Time;durP1;ratioP1;P1;durP2;ratioP2;P2;SDS_P1;SDS_P2;PMS_P1;PMS_P2;Temp;Humidity;BMP_temperature;BMP_pressure;BME280_temperature;BME280_humidity;BME280_pressure;Samples;Min_cycle;Max_cycle;Signal;HPM_P1;HPM_P2
2021/07/17 00:00:50;;;;;;;7.35;6.20;;;;;;;;;;5011591;28;20196;-84
2021/07/17 00:03:16;;;;;;;13.23;6.97;;;;;;;;;;5062250;28;20264;-83
2021/07/17 00:05:42;;;;;;;10.37;6.50;;;;;;;;;;5018248;28;20182;-83
2021/07/17 00:08:09;;;;;;;11.38;6.40;;;;;;;;;;5039501;28;21010;-84
2021/07/17 00:10:49;;;;;;;6.28;5.68;;;;;;;;;;5060826;28;20215;-84
2021/07/17 00:13:16;;;;;;;11.93;6.93;;;;;;;;;;5045838;28;20204;-85
2021/07/17 00:15:43;;;;;;;11.85;6.70;;;;;;;;;;5060419;28;20261;-82
2021/07/17 00:18:09;;;;;;;7.72;7.03;;;;;;;;;;5061741;28;20555;-84
2021/07/17 00:20:35;;;;;;;11.70;7.00;;;;;;;;;;5060653;28;20173;-85
2021/07/17 00:23:01;;;;;;;10.83;7.47;;;;;;;;;;5022845;28;20205;-84
2021/07/17 00:25:27;;;;;;;20.33;8.55;;;;;;;;;;5015663;28;20924;-84
2021/07/17 00:27:54;;;;;;;10.18;7.47;;;;;;;;;;5012011;28;20196;-84
2021/07/17 00:30:20;;;;;;;12.23;7.30;;;;;;;;;;5060961;28;20176;-84
2021/07/17 00:32:46;;;;;;;9.73;7.75;;;;;;;;;;5016835;28;20178;-85
2021/07/17 00:35:13;;;;;;;8.65;6.57;;;;;;;;;;5012083;28;20187;-84
2021/07/17 00:37:39;;;;;;;10.68;7.18;;;;;;;;;;5035197;28;20259;-84
2021/07/17 00:40:06;;;;;;;16.50;8.17;;;;;;;;;;5044625;28;20190;-84
2021/07/17 00:42:32;;;;;;;15.13;7.05;;;;;;;;;;5060439;28;20827;-84
2021/07/17 00:44:58;;;;;;;13.10;6.95;;;;;;;;;;5060903;28;20177;-84
2021/07/17 00:47:24;;;;;;;10.33;6.97;;;;;;;;;;5015339;28;20183;-84
2021/07/17 00:49:50;;;;;;;8.40;7.53;;;;;;;;;;5036723;28;20452;-85
2021/07/17 00:52:16;;;;;;;12.63;7.50;;;;;;;;;;5026903;28;20182;-85
2021/07/17 00:54:44;;;;;;;10.27;6.87;;;;;;;;;;5060185;28;20468;-85
2021/07/17 00:57:10;;;;;;;15.88;8.73;;;;;;;;;;5045650;28;20459;-84
2021/07/17 00:59:37;;;;;;;11.65;6.65;;;;;;;;;;5021929;28;20204;-85
2021/07/17 01:02:03;;;;;;;8.25;6.80;;;;;;;;;;5022403;28;20193;-85
2021/07/17 01:04:30;;;;;;;13.40;8.25;;;;;;;;;;5023089;28;20182;-84
2021/07/17 01:06:59;;;;;;;13.00;8.13;;;;;;;;;;5044231;28;20181;-84
2021/07/17 01:09:25;;;;;;;10.85;7.55;;;;;;;;;;5057029;28;20173;-84
2021/07/17 01:11:51;;;;;;;13.48;7.78;;;;;;;;;;5059748;28;20208;-81
2021/07/17 01:14:18;;;;;;;11.90;7.43;;;;;;;;;;5021695;28;20182;-85
2021/07/17 01:16:44;;;;;;;9.52;7.85;;;;;;;;;;5026456;28;20214;-85
2021/07/17 01:19:11;;;;;;;15.07;9.45;;;;;;;;;;5026514;28;20281;-85
2021/07/17 01:21:37;;;;;;;12.68;8.13;;;;;;;;;;5059865;28;20173;-85
2021/07/17 01:24:03;;;;;;;9.90;7.70;;;;;;;;;;5060503;28;20219;-83
2021/07/17 01:26:30;;;;;;;11.20;7.45;;;;;;;;;;5044650;28;20582;-85
2021/07/17 01:28:56;;;;;;;15.80;6.70;;;;;;;;;;5021392;28;20231;-85
2021/07/17 01:31:22;;;;;;;10.25;7.35;;;;;;;;;;5044129;28;20193;-85
2021/07/17 01:33:48;;;;;;;8.70;7.63;;;;;;;;;;5059830;28;20189;-85
2021/07/17 01:36:14;;;;;;;11.75;7.28;;;;;;;;;;5060500;28;20202;-84
2021/07/17 01:38:41;;;;;;;12.13;7.72;;;;;;;;;;5044490;28;20237;-82
2021/07/17 01:41:09;;;;;;;9.73;6.72;;;;;;;;;;5020000;28;20190;-85
2021/07/17 01:43:35;;;;;;;11.73;7.82;;;;;;;;;;5004167;28;20187;-84
2021/07/17 01:46:01;;;;;;;7.97;6.35;;;;;;;;;;5039507;28;20213;-84
2021/07/17 01:48:27;;;;;;;10.15;6.90;;;;;;;;;;5060032;28;20231;-83
2021/07/17 01:50:53;;;;;;;11.17;6.10;;;;;;;;;;5059806;28;20174;-85
2021/07/17 01:53:20;;;;;;;8.25;7.38;;;;;;;;;;5043796;28;20433;-85
2021/07/17 01:55:46;;;;;;;9.05;7.22;;;;;;;;;;5021171;28;20217;-85
2021/07/17 01:58:12;;;;;;;12.80;7.85;;;;;;;;;;5043882;28;20186;-85
2021/07/17 02:00:39;;;;;;;11.77;8.38;;;;;;;;;;5059630;28;20189;-83
2021/07/17 02:03:05;;;;;;;14.43;7.50;;;;;;;;;;5044461;28;20192;-85
2021/07/17 02:05:31;;;;;;;10.07;7.80;;;;;;;;;;5021039;28;20185;-85
2021/07/17 02:07:59;;;;;;;11.75;7.75;;;;;;;;;;5021469;28;20257;-85
2021/07/17 02:10:26;;;;;;;15.90;7.65;;;;;;;;;;5043035;28;20181;-84
2021/07/17 02:12:57;;;;;;;17.27;8.43;;;;;;;;;;5042998;28;20276;-84
2021/07/17 02:15:23;;;;;;;11.02;7.82;;;;;;;;;;5058314;28;20177;-84
2021/07/17 02:17:49;;;;;;;12.93;8.25;;;;;;;;;;5058494;28;20197;-84
2021/07/17 02:20:15;;;;;;;10.70;8.07;;;;;;;;;;5043444;28;20186;-84
2021/07/17 02:22:41;;;;;;;12.23;8.60;;;;;;;;;;5025784;28;20186;-84
2021/07/17 02:25:08;;;;;;;11.90;8.23;;;;;;;;;;5043011;28;20203;-85
2021/07/17 02:27:34;;;;;;;8.32;6.57;;;;;;;;;;5058203;28;20428;-85
2021/07/17 02:30:00;;;;;;;11.00;8.57;;;;;;;;;;5059445;28;20288;-84
2021/07/17 02:32:26;;;;;;;14.75;9.27;;;;;;;;;;5043424;28;20193;-85
2021/07/17 02:34:53;;;;;;;12.57;7.87;;;;;;;;;;5043312;28;20194;-85
2021/07/17 02:37:20;;;;;;;8.57;7.70;;;;;;;;;;5042899;28;20496;-85
2021/07/17 02:39:46;;;;;;;12.75;8.23;;;;;;;;;;5057996;28;20177;-84
2021/07/17 02:42:12;;;;;;;14.85;8.10;;;;;;;;;;5043634;28;20205;-85
2021/07/17 02:44:38;;;;;;;13.25;7.45;;;;;;;;;;5042870;28;20209;-85
2021/07/17 02:47:04;;;;;;;15.45;9.05;;;;;;;;;;5042603;28;20190;-84
2021/07/17 02:49:31;;;;;;;10.80;7.90;;;;;;;;;;5058193;28;20193;-84
2021/07/17 02:51:57;;;;;;;11.63;8.80;;;;;;;;;;5055152;28;20198;-84
2021/07/17 02:54:23;;;;;;;10.32;8.10;;;;;;;;;;5042293;28;20188;-84
2021/07/17 02:56:49;;;;;;;15.23;10.15;;;;;;;;;;5058254;28;20208;-85
2021/07/17 02:59:15;;;;;;;10.30;8.10;;;;;;;;;;5020158;28;20196;-83
2021/07/17 03:01:41;;;;;;;12.38;8.30;;;;;;;;;;5020607;28;20178;-83
2021/07/17 03:04:07;;;;;;;13.15;7.60;;;;;;;;;;5042853;28;20645;-83
2021/07/17 03:06:33;;;;;;;9.17;8.17;;;;;;;;;;5058559;28;20227;-84
2021/07/17 03:08:59;;;;;;;11.20;7.90;;;;;;;;;;5042397;28;20460;-84
2021/07/17 03:11:25;;;;;;;17.48;8.25;;;;;;;;;;5019710;28;20244;-84
2021/07/17 03:13:52;;;;;;;16.40;9.90;;;;;;;;;;5024068;28;20193;-85
2021/07/17 03:16:17;;;;;;;16.42;8.70;;;;;;;;;;5057525;28;20243;-83
2021/07/17 03:18:44;;;;;;;14.10;8.90;;;;;;;;;;5058330;28;20174;-83
2021/07/17 03:21:10;;;;;;;13.00;8.90;;;;;;;;;;5044206;28;20405;-84
2021/07/17 03:23:36;;;;;;;10.82;8.05;;;;;;;;;;5041591;28;20196;-84
2021/07/17 03:26:03;;;;;;;15.10;9.05;;;;;;;;;;5023767;28;20228;-84
2021/07/17 03:28:29;;;;;;;16.02;8.38;;;;;;;;;;5043945;28;20190;-84
2021/07/17 03:30:55;;;;;;;11.50;8.53;;;;;;;;;;5062004;28;20281;-84
2021/07/17 03:33:21;;;;;;;14.30;8.80;;;;;;;;;;5062713;28;20432;-84
2021/07/17 03:35:47;;;;;;;16.57;10.10;;;;;;;;;;5029156;28;20470;-85
2021/07/17 03:38:12;;;;;;;11.93;8.40;;;;;;;;;;5023188;28;20460;-84
2021/07/17 03:40:39;;;;;;;12.73;7.78;;;;;;;;;;5027895;28;20451;-84
2021/07/17 03:43:05;;;;;;;17.60;10.23;;;;;;;;;;5027886;28;20182;-84
2021/07/17 03:45:31;;;;;;;11.07;8.20;;;;;;;;;;5047127;28;20208;-83
2021/07/17 03:47:57;;;;;;;20.45;8.98;;;;;;;;;;5061991;28;20420;-83
2021/07/17 03:50:23;;;;;;;10.77;8.30;;;;;;;;;;5046185;28;20205;-85
2021/07/17 03:52:49;;;;;;;15.10;9.30;;;;;;;;;;5060277;28;20213;-84
2021/07/17 03:55:15;;;;;;;18.33;9.57;;;;;;;;;;5028084;28;20186;-85
2021/07/17 03:57:41;;;;;;;14.70;7.43;;;;;;;;;;5061609;28;20524;-84
2021/07/17 04:00:08;;;;;;;11.47;7.57;;;;;;;;;;5060165;28;20194;-85
2021/07/17 04:02:41;;;;;;;15.27;8.07;;;;;;;;;;5023603;28;20444;-84
2021/07/17 04:05:08;;;;;;;13.60;8.77;;;;;;;;;;5045911;28;20208;-85
2021/07/17 04:07:34;;;;;;;14.93;9.95;;;;;;;;;;5045605;28;20186;-84
2021/07/17 04:10:00;;;;;;;15.33;8.60;;;;;;;;;;5027882;28;20185;-83
2021/07/17 04:12:26;;;;;;;16.00;8.80;;;;;;;;;;5046888;28;20915;-85
2021/07/17 04:14:52;;;;;;;11.53;9.17;;;;;;;;;;5033502;28;20441;-84
2021/07/17 04:17:18;;;;;;;12.68;8.25;;;;;;;;;;5018531;28;20566;-83
2021/07/17 04:19:44;;;;;;;13.15;8.35;;;;;;;;;;5045328;28;20253;-84
2021/07/17 04:22:10;;;;;;;13.98;9.52;;;;;;;;;;5026775;28;20177;-84
2021/07/17 04:24:36;;;;;;;11.57;8.60;;;;;;;;;;5045281;28;20174;-83
2021/07/17 04:27:02;;;;;;;13.73;8.43;;;;;;;;;;5061711;28;20834;-84
2021/07/17 04:29:28;;;;;;;19.60;10.02;;;;;;;;;;5060848;28;20447;-84
2021/07/17 04:31:54;;;;;;;11.50;8.00;;;;;;;;;;5027303;28;20185;-85
2021/07/17 04:34:20;;;;;;;14.52;9.45;;;;;;;;;;5044683;28;20185;-85
2021/07/17 04:36:46;;;;;;;14.15;8.05;;;;;;;;;;5059750;28;20193;-85
2021/07/17 04:39:12;;;;;;;12.05;8.45;;;;;;;;;;5061534;28;20209;-84
2021/07/17 04:41:38;;;;;;;13.80;10.75;;;;;;;;;;5021924;28;20251;-85
2021/07/17 04:44:05;;;;;;;14.00;8.33;;;;;;;;;;5044744;28;20182;-85
2021/07/17 04:46:30;;;;;;;16.30;7.13;;;;;;;;;;5022300;28;20805;-83
2021/07/17 04:48:56;;;;;;;14.90;9.37;;;;;;;;;;5060453;28;20201;-83
2021/07/17 04:51:23;;;;;;;15.77;9.80;;;;;;;;;;5061407;28;20424;-84
2021/07/17 04:53:49;;;;;;;19.52;8.93;;;;;;;;;;5015862;28;20269;-84
2021/07/17 04:56:14;;;;;;;16.20;8.85;;;;;;;;;;5015262;28;20237;-84
2021/07/17 04:58:41;;;;;;;14.67;10.40;;;;;;;;;;5034405;28;20190;-84
2021/07/17 05:01:06;;;;;;;16.27;8.93;;;;;;;;;;5027611;28;20428;-85
2021/07/17 05:03:33;;;;;;;16.10;9.13;;;;;;;;;;5044203;28;20204;-84
2021/07/17 05:05:59;;;;;;;18.20;9.10;;;;;;;;;;5060268;28;20408;-84
2021/07/17 05:08:24;;;;;;;17.08;9.45;;;;;;;;;;5019321;28;20220;-84
2021/07/17 05:10:50;;;;;;;13.17;8.47;;;;;;;;;;5036182;28;20614;-84
2021/07/17 05:13:18;;;;;;;12.30;8.98;;;;;;;;;;5026353;28;20444;-84
2021/07/17 05:15:44;;;;;;;14.20;8.65;;;;;;;;;;5060190;28;20176;-83
2021/07/17 05:18:13;;;;;;;13.77;9.30;;;;;;;;;;5060424;28;20261;-84
2021/07/17 05:20:40;;;;;;;17.48;10.18;;;;;;;;;;5059529;28;20547;-82
2021/07/17 05:23:06;;;;;;;18.95;9.15;;;;;;;;;;5059925;28;20186;-85
2021/07/17 05:25:32;;;;;;;10.90;8.27;;;;;;;;;;5026016;28;20228;-84
2021/07/17 05:27:58;;;;;;;17.10;8.55;;;;;;;;;;5059990;28;20181;-85
2021/07/17 05:30:24;;;;;;;19.10;8.77;;;;;;;;;;5056597;28;20193;-85
2021/07/17 05:32:50;;;;;;;17.63;9.52;;;;;;;;;;5059726;28;20186;-84
2021/07/17 05:35:16;;;;;;;14.48;8.60;;;;;;;;;;5019404;28;20183;-84
2021/07/17 05:37:43;;;;;;;14.20;9.80;;;;;;;;;;5033993;28;20237;-84
2021/07/17 05:40:09;;;;;;;18.02;9.07;;;;;;;;;;5025957;28;20661;-86
2021/07/17 05:42:35;;;;;;;20.50;10.63;;;;;;;;;;5043867;28;20192;-84
2021/07/17 05:45:01;;;;;;;9.93;8.02;;;;;;;;;;5044732;28;20181;-85
2021/07/17 05:47:29;;;;;;;19.98;9.45;;;;;;;;;;5021192;28;20177;-84
2021/07/17 05:49:54;;;;;;;14.50;9.02;;;;;;;;;;5025635;28;20204;-85
2021/07/17 05:52:20;;;;;;;16.80;8.70;;;;;;;;;;5043496;28;20181;-85
2021/07/17 05:54:46;;;;;;;17.53;10.70;;;;;;;;;;5043947;28;20421;-85
2021/07/17 05:57:13;;;;;;;21.48;9.02;;;;;;;;;;5045006;28;20460;-85
2021/07/17 05:59:38;;;;;;;15.60;9.18;;;;;;;;;;5043374;28;20203;-84
2021/07/17 06:02:06;;;;;;;14.82;8.55;;;;;;;;;;5021556;28;20186;-85
2021/07/17 06:04:32;;;;;;;16.02;10.02;;;;;;;;;;5009955;28;20186;-84
2021/07/17 06:06:58;;;;;;;13.57;9.02;;;;;;;;;;5043993;28;20185;-85
2021/07/17 06:09:24;;;;;;;14.40;10.00;;;;;;;;;;5040468;28;20185;-86
2021/07/17 06:11:50;;;;;;;15.77;9.10;;;;;;;;;;5043956;28;20192;-84
2021/07/17 06:14:17;;;;;;;16.05;9.43;;;;;;;;;;5042826;28;20185;-81
2021/07/17 06:16:43;;;;;;;21.60;10.90;;;;;;;;;;5043226;28;20209;-84
2021/07/17 06:19:09;;;;;;;19.45;10.00;;;;;;;;;;5042537;28;20194;-84
2021/07/17 06:21:35;;;;;;;15.15;10.02;;;;;;;;;;5059159;28;20240;-84
2021/07/17 06:24:01;;;;;;;19.67;9.63;;;;;;;;;;5059627;28;20170;-86
2021/07/17 06:26:27;;;;;;;10.48;9.27;;;;;;;;;;5017396;28;20433;-84
2021/07/17 06:28:53;;;;;;;17.27;10.53;;;;;;;;;;5034627;28;20213;-84
2021/07/17 06:31:19;;;;;;;15.35;9.27;;;;;;;;;;5042960;28;20442;-84
2021/07/17 06:33:46;;;;;;;21.50;10.50;;;;;;;;;;5057789;28;20824;-85
2021/07/17 06:36:12;;;;;;;14.98;10.32;;;;;;;;;;5043740;28;20202;-84
2021/07/17 06:38:38;;;;;;;15.00;10.02;;;;;;;;;;5016331;28;20226;-85
2021/07/17 06:41:04;;;;;;;15.93;10.80;;;;;;;;;;5013266;28;20205;-83
2021/07/17 06:43:30;;;;;;;19.20;10.75;;;;;;;;;;5021516;28;20429;-85
2021/07/17 06:45:56;;;;;;;24.20;11.82;;;;;;;;;;5058054;28;20668;-83
2021/07/17 06:48:23;;;;;;;15.43;9.93;;;;;;;;;;5058602;28;20197;-83
2021/07/17 06:50:49;;;;;;;16.83;12.20;;;;;;;;;;5042400;28;20731;-83
2021/07/17 06:53:15;;;;;;;21.30;11.95;;;;;;;;;;5042800;28;20186;-84
2021/07/17 06:55:42;;;;;;;20.38;12.18;;;;;;;;;;5042419;28;20186;-83
2021/07/17 06:58:08;;;;;;;19.55;12.40;;;;;;;;;;5024744;28;20201;-85
2021/07/17 07:00:35;;;;;;;14.10;10.20;;;;;;;;;;5058229;28;20180;-83
2021/07/17 07:03:01;;;;;;;20.17;11.57;;;;;;;;;;5057744;28;20230;-86
2021/07/17 07:05:27;;;;;;;16.58;11.07;;;;;;;;;;5047310;28;20209;-85
2021/07/17 07:07:53;;;;;;;19.13;11.05;;;;;;;;;;5062271;28;20270;-85
2021/07/17 07:10:19;;;;;;;14.73;11.40;;;;;;;;;;5028873;28;20664;-84
2021/07/17 07:12:45;;;;;;;21.58;10.55;;;;;;;;;;5062034;28;20687;-85
2021/07/17 07:15:11;;;;;;;20.30;11.27;;;;;;;;;;5047492;28;20469;-84
2021/07/17 07:17:38;;;;;;;15.95;11.32;;;;;;;;;;5028171;28;20495;-84
2021/07/17 07:20:08;;;;;;;21.10;12.10;;;;;;;;;;5046954;28;20184;-84
2021/07/17 07:22:34;;;;;;;24.73;11.43;;;;;;;;;;5061584;28;20205;-84
2021/07/17 07:25:00;;;;;;;16.33;10.95;;;;;;;;;;5045971;28;20253;-84
2021/07/17 07:27:26;;;;;;;20.33;12.03;;;;;;;;;;5063115;28;20173;-85
2021/07/17 07:29:52;;;;;;;18.25;11.18;;;;;;;;;;5046615;28;20451;-85
2021/07/17 07:32:18;;;;;;;20.35;11.70;;;;;;;;;;5045872;28;20241;-84
2021/07/17 07:34:44;;;;;;;16.30;11.32;;;;;;;;;;5028201;28;20196;-83
2021/07/17 07:37:10;;;;;;;18.75;11.77;;;;;;;;;;5061258;28;20233;-86
2021/07/17 07:39:36;;;;;;;16.73;10.60;;;;;;;;;;5061582;28;20196;-83
2021/07/17 07:42:03;;;;;;;18.50;12.45;;;;;;;;;;5047767;28;20170;-83
2021/07/17 07:44:30;;;;;;;15.95;10.93;;;;;;;;;;5045146;28;20189;-83
2021/07/17 07:46:56;;;;;;;16.48;11.63;;;;;;;;;;5045331;28;20178;-84
2021/07/17 07:49:22;;;;;;;19.95;11.60;;;;;;;;;;5028044;28;20193;-82
2021/07/17 07:51:48;;;;;;;15.87;10.17;;;;;;;;;;5046158;28;20181;-85
2021/07/17 07:54:14;;;;;;;16.25;11.07;;;;;;;;;;5063071;28;20403;-84
2021/07/17 07:56:40;;;;;;;19.65;10.77;;;;;;;;;;5045427;28;20209;-83
2021/07/17 07:59:06;;;;;;;17.60;11.70;;;;;;;;;;5022229;28;20281;-84
2021/07/17 08:01:32;;;;;;;21.63;10.98;;;;;;;;;;5012610;28;20460;-82
2021/07/17 08:03:58;;;;;;;16.80;11.55;;;;;;;;;;5046015;28;20182;-84
2021/07/17 08:06:24;;;;;;;17.23;12.07;;;;;;;;;;5057944;28;20308;-82
2021/07/17 08:08:50;;;;;;;17.70;10.90;;;;;;;;;;5027183;28;20436;-83
2021/07/17 08:11:16;;;;;;;20.52;12.35;;;;;;;;;;5021297;28;20202;-82
2021/07/17 08:13:42;;;;;;;18.80;12.68;;;;;;;;;;5017124;28;20719;-84
2021/07/17 08:16:10;;;;;;;22.70;12.63;;;;;;;;;;5045150;28;20198;-83
2021/07/17 08:18:36;;;;;;;16.85;13.00;;;;;;;;;;5045652;28;20393;-83
2021/07/17 08:21:02;;;;;;;16.13;12.37;;;;;;;;;;5061633;28;20185;-84
2021/07/17 08:23:28;;;;;;;24.03;13.23;;;;;;;;;;5061088;28;20425;-83
2021/07/17 08:25:54;;;;;;;21.13;13.60;;;;;;;;;;5044455;28;20443;-83
2021/07/17 08:28:20;;;;;;;18.60;13.00;;;;;;;;;;5059866;28;20181;-82
2021/07/17 08:30:46;;;;;;;21.45;13.10;;;;;;;;;;5012190;28;20257;-83
2021/07/17 08:33:13;;;;;;;21.13;13.88;;;;;;;;;;5061772;28;20208;-83
2021/07/17 08:35:39;;;;;;;18.80;12.77;;;;;;;;;;5017629;28;20210;-84
2021/07/17 08:38:05;;;;;;;18.95;12.10;;;;;;;;;;5016479;28;20249;-85
2021/07/17 08:40:32;;;;;;;17.33;12.63;;;;;;;;;;5022689;28;20198;-83
2021/07/17 08:42:58;;;;;;;19.65;12.70;;;;;;;;;;5060324;28;20180;-81
2021/07/17 08:45:25;;;;;;;18.58;12.43;;;;;;;;;;5045516;28;20182;-83
2021/07/17 08:47:52;;;;;;;20.80;12.25;;;;;;;;;;5044626;28;20183;-82
2021/07/17 08:50:21;;;;;;;18.75;12.45;;;;;;;;;;5060033;28;20700;-82
2021/07/17 08:52:49;;;;;;;17.13;11.02;;;;;;;;;;5044604;28;20187;-83
2021/07/17 08:55:15;;;;;;;22.00;13.75;;;;;;;;;;5027057;28;20600;-83
2021/07/17 08:57:45;;;;;;;21.00;12.50;;;;;;;;;;5059340;28;20212;-84
2021/07/17 09:00:14;;;;;;;17.13;12.52;;;;;;;;;;5059244;28;20422;-82
2021/07/17 09:02:41;;;;;;;20.00;12.65;;;;;;;;;;5044834;28;20191;-84
2021/07/17 09:05:07;;;;;;;26.45;14.00;;;;;;;;;;5022842;28;20195;-82
2021/07/17 09:07:33;;;;;;;22.23;14.13;;;;;;;;;;5022818;28;20188;-81
2021/07/17 09:09:59;;;;;;;19.97;12.90;;;;;;;;;;5055443;28;20215;-83
2021/07/17 09:12:26;;;;;;;18.70;13.30;;;;;;;;;;5044190;28;20425;-84
2021/07/17 09:14:52;;;;;;;19.05;12.52;;;;;;;;;;5059243;28;20439;-85
2021/07/17 09:17:30;;;;;;;18.42;12.15;;;;;;;;;;5019585;28;20323;-84
2021/07/17 09:19:59;;;;;;;17.05;12.65;;;;;;;;;;5015414;28;20988;-84
2021/07/17 09:22:51;;;;;;;18.67;12.07;;;;;;;;;;5032107;28;20184;-83
2021/07/17 09:25:18;;;;;;;18.63;12.40;;;;;;;;;;5026795;28;20195;-83
2021/07/17 09:27:45;;;;;;;21.83;12.95;;;;;;;;;;5042572;28;20198;-82
2021/07/17 09:30:26;;;;;;;14.98;11.63;;;;;;;;;;5060300;28;20704;-84
2021/07/17 09:32:57;;;;;;;22.25;12.18;;;;;;;;;;5059169;28;20187;-83
2021/07/17 09:35:23;;;;;;;18.60;12.93;;;;;;;;;;5060041;28;20478;-84
2021/07/17 09:37:54;;;;;;;14.30;12.10;;;;;;;;;;5042561;28;20225;-83
2021/07/17 09:40:20;;;;;;;22.17;12.13;;;;;;;;;;5058236;28;20462;-83
2021/07/17 09:42:46;;;;;;;19.10;12.20;;;;;;;;;;5009417;28;20419;-82
2021/07/17 09:45:12;;;;;;;31.97;12.83;;;;;;;;;;5060513;28;20428;-82
2021/07/17 09:47:38;;;;;;;12.97;11.23;;;;;;;;;;5016456;28;20443;-82
2021/07/17 09:50:17;;;;;;;14.40;11.40;;;;;;;;;;5018669;28;20883;-83
2021/07/17 09:52:46;;;;;;;14.37;11.40;;;;;;;;;;5043836;28;20435;-83
2021/07/17 09:55:14;;;;;;;13.30;10.70;;;;;;;;;;5058131;28;20455;-83
2021/07/17 09:57:40;;;;;;;16.97;11.20;;;;;;;;;;5058307;28;20591;-84
2021/07/17 10:00:10;;;;;;;12.63;11.25;;;;;;;;;;5045032;28;20426;-85
2021/07/17 10:02:36;;;;;;;19.92;12.77;;;;;;;;;;5021223;28;20272;-83
2021/07/17 10:05:05;;;;;;;16.10;12.27;;;;;;;;;;5017163;28;20182;-83
2021/07/17 10:07:31;;;;;;;14.87;11.33;;;;;;;;;;5013968;28;20448;-83
2021/07/17 10:09:57;;;;;;;17.57;12.60;;;;;;;;;;5024868;28;20443;-83
2021/07/17 10:12:37;;;;;;;18.27;11.23;;;;;;;;;;5060193;28;20383;-84
2021/07/17 10:15:07;;;;;;;16.40;11.80;;;;;;;;;;5043361;28;20458;-84
2021/07/17 10:17:37;;;;;;;15.90;11.40;;;;;;;;;;5042918;28;20464;-82
2021/07/17 10:20:08;;;;;;;18.63;13.60;;;;;;;;;;5042323;28;20443;-83
2021/07/17 10:22:34;;;;;;;15.07;9.43;;;;;;;;;;5058023;28;20407;-82
2021/07/17 10:25:01;;;;;;;17.93;10.43;;;;;;;;;;5025160;28;20437;-82
2021/07/17 10:27:27;;;;;;;11.40;10.27;;;;;;;;;;5026112;28;20561;-84
2021/07/17 10:29:53;;;;;;;19.93;10.53;;;;;;;;;;5042946;28;20446;-82
2021/07/17 10:32:19;;;;;;;13.90;10.87;;;;;;;;;;5014395;28;20434;-82
2021/07/17 10:34:46;;;;;;;12.20;10.27;;;;;;;;;;5011647;28;20419;-81
2021/07/17 10:37:17;;;;;;;16.20;11.00;;;;;;;;;;5057943;28;20442;-83
2021/07/17 10:40:03;;;;;;;15.37;9.90;;;;;;;;;;5041741;28;20467;-84
2021/07/17 10:42:29;;;;;;;21.40;11.60;;;;;;;;;;5018768;28;20415;-81
2021/07/17 10:44:55;;;;;;;21.00;11.93;;;;;;;;;;5043014;28;20387;-82
2021/07/17 10:47:22;;;;;;;16.90;12.17;;;;;;;;;;5018082;28;20480;-81
2021/07/17 10:49:52;;;;;;;17.40;11.20;;;;;;;;;;5033363;28;20897;-82
2021/07/17 10:52:34;;;;;;;15.60;11.10;;;;;;;;;;5042676;28;20410;-81
2021/07/17 10:55:23;;;;;;;12.60;10.23;;;;;;;;;;5025039;28;20418;-82
2021/07/17 10:57:50;;;;;;;21.43;12.03;;;;;;;;;;5014581;28;21184;-82
2021/07/17 11:00:35;;;;;;;15.80;11.93;;;;;;;;;;5058916;28;20422;-81
2021/07/17 11:03:21;;;;;;;17.33;12.13;;;;;;;;;;5037815;28;20432;-83
2021/07/17 11:05:47;;;;;;;15.27;11.73;;;;;;;;;;5024794;28;20419;-83
2021/07/17 11:08:30;;;;;;;17.40;11.80;;;;;;;;;;5018087;28;20415;-82
2021/07/17 11:10:56;;;;;;;12.60;10.40;;;;;;;;;;5016477;28;20805;-83
2021/07/17 11:13:35;;;;;;;17.73;11.67;;;;;;;;;;5042417;28;20409;-83
2021/07/17 11:16:04;;;;;;;19.97;12.40;;;;;;;;;;5027589;28;20446;-81
2021/07/17 11:18:32;;;;;;;14.57;11.60;;;;;;;;;;5057919;28;20395;-81
2021/07/17 11:21:01;;;;;;;13.87;11.17;;;;;;;;;;5042890;28;20382;-82
2021/07/17 11:23:41;;;;;;;14.27;10.43;;;;;;;;;;5012882;28;20433;-82
2021/07/17 11:26:09;;;;;;;14.13;12.27;;;;;;;;;;5036062;28;20450;-81
2021/07/17 11:28:46;;;;;;;17.90;12.50;;;;;;;;;;5057470;28;20418;-82
2021/07/17 11:31:28;;;;;;;18.20;12.57;;;;;;;;;;5042761;28;20425;-82
2021/07/17 11:34:20;;;;;;;14.63;11.07;;;;;;;;;;5058283;28;20437;-82
2021/07/17 11:36:53;;;;;;;19.77;12.90;;;;;;;;;;5055072;28;20457;-84
2021/07/17 11:39:28;;;;;;;15.60;11.63;;;;;;;;;;5059197;28;20424;-83
2021/07/17 11:41:54;;;;;;;16.33;11.87;;;;;;;;;;5042978;28;20387;-84
2021/07/17 11:44:20;;;;;;;17.67;13.97;;;;;;;;;;5041839;28;20519;-83
2021/07/17 11:47:12;;;;;;;22.33;12.57;;;;;;;;;;5019635;28;20696;-81
2021/07/17 11:49:42;;;;;;;17.33;11.30;;;;;;;;;;5039702;28;20430;-81
2021/07/17 11:52:10;;;;;;;17.50;11.40;;;;;;;;;;5028021;28;20714;-83
2021/07/17 11:54:38;;;;;;;17.53;13.00;;;;;;;;;;5061629;28;20492;-83
2021/07/17 11:57:05;;;;;;;14.90;10.57;;;;;;;;;;5061596;28;20434;-84
2021/07/17 11:59:31;;;;;;;16.53;11.10;;;;;;;;;;5045287;28;20440;-83
2021/07/17 12:02:03;;;;;;;13.37;9.80;;;;;;;;;;5045795;28;20678;-82
2021/07/17 12:04:33;;;;;;;19.57;12.30;;;;;;;;;;5060717;28;20474;-83
2021/07/17 12:07:05;;;;;;;14.47;11.03;;;;;;;;;;5028239;28;20705;-82
2021/07/17 12:09:32;;;;;;;13.97;10.00;;;;;;;;;;5058208;28;20463;-81
2021/07/17 12:12:11;;;;;;;17.87;11.33;;;;;;;;;;5045951;28;20395;-83
2021/07/17 12:14:37;;;;;;;12.73;10.20;;;;;;;;;;5045507;28;20490;-82
2021/07/17 12:17:03;;;;;;;13.80;9.77;;;;;;;;;;5026537;28;20446;-81
2021/07/17 12:19:29;;;;;;;12.17;9.00;;;;;;;;;;5027253;28;20426;-82
2021/07/17 12:21:59;;;;;;;21.43;11.00;;;;;;;;;;5011372;28;20414;-81
2021/07/17 12:24:25;;;;;;;15.87;11.90;;;;;;;;;;5046521;28;20414;-82
2021/07/17 12:26:51;;;;;;;17.60;11.43;;;;;;;;;;5060275;28;20906;-83
2021/07/17 12:29:17;;;;;;;17.60;11.90;;;;;;;;;;5020556;28;20441;-83
2021/07/17 12:32:03;;;;;;;15.57;12.17;;;;;;;;;;5014058;28;20498;-81
2021/07/17 12:34:30;;;;;;;16.93;11.07;;;;;;;;;;5061126;28;20446;-82
2021/07/17 12:36:56;;;;;;;13.73;10.53;;;;;;;;;;5059848;28;20477;-82
2021/07/17 12:39:25;;;;;;;16.40;10.83;;;;;;;;;;5060929;28;20442;-82
2021/07/17 12:41:53;;;;;;;15.80;11.53;;;;;;;;;;5016299;28;20469;-82
2021/07/17 12:44:19;;;;;;;17.03;11.00;;;;;;;;;;5039625;28;20399;-82
2021/07/17 12:46:49;;;;;;;11.60;10.47;;;;;;;;;;5060369;28;20452;-82
2021/07/17 12:49:16;;;;;;;17.80;13.00;;;;;;;;;;5026431;28;20839;-82
2021/07/17 12:51:44;;;;;;;18.20;12.63;;;;;;;;;;5044926;28;20398;-82
2021/07/17 12:54:20;;;;;;;18.30;10.90;;;;;;;;;;5059268;28;20421;-81
2021/07/17 12:56:46;;;;;;;16.37;11.37;;;;;;;;;;5044800;28;20494;-81
2021/07/17 12:59:22;;;;;;;17.13;11.93;;;;;;;;;;5059568;28;20411;-81
2021/07/17 13:01:58;;;;;;;19.10;12.40;;;;;;;;;;5025622;28;20938;-81
2021/07/17 13:04:25;;;;;;;18.57;12.43;;;;;;;;;;5044197;28;20428;-81
2021/07/17 13:07:03;;;;;;;21.20;13.40;;;;;;;;;;5059747;28;20471;-82
2021/07/17 13:09:32;;;;;;;15.90;12.17;;;;;;;;;;5041577;28;21012;-82
2021/07/17 13:11:59;;;;;;;18.70;12.17;;;;;;;;;;5045488;28;20398;-81
2021/07/17 13:14:26;;;;;;;19.30;11.00;;;;;;;;;;5044192;28;20460;-81
2021/07/17 13:16:52;;;;;;;14.70;12.03;;;;;;;;;;5044178;28;20472;-81
2021/07/17 13:19:21;;;;;;;15.50;11.93;;;;;;;;;;5043250;28;20707;-82
2021/07/17 13:21:47;;;;;;;17.70;12.07;;;;;;;;;;5059245;28;20392;-83
2021/07/17 13:24:14;;;;;;;13.77;10.43;;;;;;;;;;5060445;28;20898;-82
2021/07/17 13:26:41;;;;;;;15.73;11.40;;;;;;;;;;5016717;28;20474;-82
2021/07/17 13:29:21;;;;;;;16.80;11.03;;;;;;;;;;5014177;28;20468;-82
2021/07/17 13:31:55;;;;;;;17.30;11.83;;;;;;;;;;5034448;28;20453;-81
2021/07/17 13:34:22;;;;;;;14.87;11.83;;;;;;;;;;5044138;28;20842;-82
2021/07/17 13:36:51;;;;;;;13.93;11.37;;;;;;;;;;5043786;28;20490;-81
2021/07/17 13:39:17;;;;;;;13.87;10.90;;;;;;;;;;5059798;28;20498;-81
2021/07/17 13:41:43;;;;;;;18.83;10.73;;;;;;;;;;5059015;28;20480;-81
2021/07/17 13:44:13;;;;;;;19.17;11.20;;;;;;;;;;5043682;28;20839;-81
2021/07/17 13:46:39;;;;;;;12.73;10.43;;;;;;;;;;5021491;28;20441;-81
2021/07/17 13:49:18;;;;;;;16.17;10.90;;;;;;;;;;5058396;28;20438;-82
2021/07/17 13:51:44;;;;;;;17.07;11.30;;;;;;;;;;5058984;28;20509;-81
2021/07/17 13:54:10;;;;;;;15.30;11.83;;;;;;;;;;5043413;28;20414;-81
2021/07/17 13:56:37;;;;;;;13.13;10.17;;;;;;;;;;5025497;28;20962;-82
2021/07/17 13:59:05;;;;;;;15.60;11.17;;;;;;;;;;5025242;28;20439;-81
2021/07/17 14:01:31;;;;;;;12.93;9.70;;;;;;;;;;5043602;28;20447;-82
2021/07/17 14:03:58;;;;;;;17.87;10.63;;;;;;;;;;5027273;28;20446;-81
2021/07/17 14:06:27;;;;;;;15.47;10.20;;;;;;;;;;5059796;28;20585;-82
2021/07/17 14:08:54;;;;;;;13.40;10.40;;;;;;;;;;5013790;28;20826;-81
2021/07/17 14:11:20;;;;;;;15.77;11.47;;;;;;;;;;5014602;28;20422;-81
2021/07/17 14:13:46;;;;;;;12.60;9.63;;;;;;;;;;5033238;28;20497;-81
2021/07/17 14:16:13;;;;;;;13.83;10.33;;;;;;;;;;5042729;28;20475;-81
2021/07/17 14:18:42;;;;;;;11.90;9.93;;;;;;;;;;5058815;28;20816;-82
2021/07/17 14:21:08;;;;;;;11.40;10.30;;;;;;;;;;5044239;28;20497;-81
2021/07/17 14:23:34;;;;;;;13.33;10.70;;;;;;;;;;5043422;28;20406;-82
2021/07/17 14:26:01;;;;;;;14.70;10.80;;;;;;;;;;5020942;28;20499;-82